createdAt,value
2019-03-15T00:00:33.110Z,9.60
2019-03-15T00:03:02.726Z,9.03
2019-03-15T00:05:32.374Z,9.43
2019-03-15T00:08:02.142Z,9.17
2019-03-15T00:10:31.853Z,9.17
2019-03-15T00:13:01.460Z,8.37
2019-03-15T00:15:31.082Z,8.37
2019-03-15T00:18:00.714Z,9.23
2019-03-15T00:20:30.351Z,9.50
2019-03-15T00:23:00.035Z,9.00
2019-03-15T00:25:29.680Z,9.17
2019-03-15T00:27:59.305Z,9.37
2019-03-15T00:30:28.929Z,9.30
2019-03-15T00:32:58.879Z,9.47
2019-03-15T00:35:28.509Z,8.53
2019-03-15T00:37:58.139Z,8.93
2019-03-15T00:40:27.794Z,9.33
2019-03-15T00:42:59.444Z,9.40
2019-03-15T00:45:29.076Z,10.00
2019-03-15T00:47:58.723Z,9.33
2019-03-15T00:50:28.444Z,9.53
2019-03-15T00:52:58.089Z,9.60
2019-03-15T00:55:27.721Z,9.30
2019-03-15T00:57:57.388Z,10.37
2019-03-15T01:00:27.019Z,8.70
2019-03-15T01:02:56.632Z,9.93
2019-03-15T01:05:26.290Z,9.57
2019-03-15T01:07:55.914Z,9.70
2019-03-15T01:10:25.562Z,9.70
2019-03-15T01:12:55.201Z,10.30
2019-03-15T01:15:26.171Z,10.77
2019-03-15T01:17:55.795Z,10.90
2019-03-15T01:20:25.432Z,10.33
2019-03-15T01:22:55.086Z,9.70
2019-03-15T01:25:24.732Z,10.77
2019-03-15T01:27:54.378Z,10.33
2019-03-15T01:30:24.047Z,11.93
2019-03-15T01:32:54.022Z,11.00
2019-03-15T01:35:24.975Z,11.77
2019-03-15T01:37:54.586Z,10.07
2019-03-15T01:40:24.270Z,10.63
2019-03-15T01:42:53.899Z,11.00
2019-03-15T01:45:23.542Z,9.47
2019-03-15T01:47:53.233Z,12.10
2019-03-15T01:50:22.851Z,11.83
2019-03-15T01:52:52.568Z,11.50
2019-03-15T01:55:22.208Z,11.03
2019-03-15T01:57:51.849Z,13.60
2019-03-15T02:00:21.538Z,12.50
2019-03-15T02:02:51.199Z,10.43
2019-03-15T02:05:20.838Z,12.97
2019-03-15T02:07:50.479Z,11.93
2019-03-15T02:10:22.099Z,13.63
2019-03-15T02:12:49.760Z,12.10
2019-03-15T02:15:19.382Z,13.47
2019-03-15T02:17:49.077Z,13.67
2019-03-15T02:20:18.765Z,13.50
2019-03-15T02:22:48.421Z,13.90
2019-03-15T02:25:18.072Z,13.27
2019-03-15T02:27:47.702Z,13.80
2019-03-15T02:30:17.352Z,12.83
2019-03-15T02:32:46.992Z,13.63
2019-03-15T02:35:16.664Z,11.27
2019-03-15T02:37:46.294Z,6.93
2019-03-15T02:40:15.946Z,12.33
2019-03-15T02:42:45.574Z,10.70
2019-03-15T02:45:15.300Z,11.50
2019-03-15T02:47:46.422Z,12.17
2019-03-15T02:50:14.590Z,11.63
2019-03-15T02:52:44.243Z,13.30
2019-03-15T02:55:13.872Z,12.57
2019-03-15T02:57:43.544Z,14.00
2019-03-15T03:00:13.898Z,13.43
2019-03-15T03:02:42.829Z,14.03
2019-03-15T03:05:12.495Z,13.73
2019-03-15T03:07:42.152Z,13.87
2019-03-15T03:10:11.859Z,13.83
2019-03-15T03:12:41.497Z,14.13
2019-03-15T03:15:11.148Z,14.10
2019-03-15T03:17:40.835Z,14.87
2019-03-15T03:20:10.483Z,11.30
2019-03-15T03:22:40.130Z,15.63
2019-03-15T03:25:09.815Z,12.67
2019-03-15T03:27:39.518Z,14.30
2019-03-15T03:30:09.239Z,14.10
2019-03-15T03:32:38.924Z,14.00
2019-03-15T03:35:10.046Z,14.40
2019-03-15T03:37:39.352Z,14.43
2019-03-15T03:40:09.176Z,16.10
2019-03-15T03:42:38.718Z,15.07
2019-03-15T03:45:08.393Z,14.50
2019-03-15T03:47:38.058Z,14.73
2019-03-15T03:50:07.767Z,14.43
2019-03-15T03:52:37.398Z,15.07
2019-03-15T03:55:07.138Z,15.00
2019-03-15T03:57:36.778Z,15.60
2019-03-15T04:00:06.830Z,14.27
2019-03-15T04:02:36.464Z,13.30
2019-03-15T04:05:06.305Z,13.83
2019-03-15T04:07:35.947Z,14.40
2019-03-15T04:10:05.998Z,14.33
2019-03-15T04:12:35.490Z,16.73
2019-03-15T04:15:05.137Z,14.70
2019-03-15T04:17:34.794Z,17.13
2019-03-15T04:20:04.814Z,14.87
2019-03-15T04:22:34.434Z,16.20
2019-03-15T04:25:07.075Z,15.90
2019-03-15T04:27:33.850Z,17.20
2019-03-15T04:30:03.552Z,17.10
2019-03-15T04:32:34.280Z,17.70
2019-03-15T04:35:02.875Z,17.93
2019-03-15T04:37:32.490Z,17.67
2019-03-15T04:40:02.174Z,17.40
2019-03-15T04:42:31.832Z,14.83
2019-03-15T04:45:01.535Z,15.90
2019-03-15T04:47:31.154Z,19.57
2019-03-15T04:50:00.784Z,18.63
2019-03-15T04:52:32.857Z,16.97
2019-03-15T04:55:02.519Z,20.60
2019-03-15T04:57:32.154Z,21.30
2019-03-15T05:00:01.878Z,21.03
2019-03-15T05:02:32.810Z,18.03
2019-03-15T05:05:02.487Z,19.10
2019-03-15T05:07:32.114Z,18.87
2019-03-15T05:10:01.739Z,19.40
2019-03-15T05:12:31.430Z,20.87
2019-03-15T05:15:01.063Z,23.40
2019-03-15T05:17:31.985Z,24.87
2019-03-15T05:20:01.663Z,28.47
2019-03-15T05:22:31.413Z,34.43
2019-03-15T05:25:01.106Z,37.00
2019-03-15T05:27:30.755Z,32.93
2019-03-15T05:30:01.080Z,31.23
2019-03-15T05:32:31.153Z,29.97
2019-03-15T05:35:00.435Z,27.10
2019-03-15T05:37:31.393Z,25.50
2019-03-15T05:40:01.006Z,18.40
2019-03-15T05:42:30.650Z,19.77
2019-03-15T05:45:00.433Z,18.07
2019-03-15T05:47:30.035Z,18.60
2019-03-15T05:49:59.710Z,17.33
2019-03-15T05:52:29.401Z,19.23
2019-03-15T05:54:59.222Z,19.10
2019-03-15T05:57:31.326Z,22.30
2019-03-15T06:00:01.028Z,17.60
2019-03-15T06:02:31.975Z,16.30
2019-03-15T06:05:01.632Z,17.87
2019-03-15T06:07:31.280Z,19.90
2019-03-15T06:10:00.931Z,16.53
2019-03-15T06:12:30.622Z,19.47
2019-03-15T06:15:00.362Z,14.57
2019-03-15T06:17:31.392Z,17.27
2019-03-15T06:20:01.069Z,17.27
2019-03-15T06:22:30.703Z,17.07
2019-03-15T06:25:00.400Z,18.27
2019-03-15T06:27:31.311Z,15.47
2019-03-15T06:29:59.702Z,17.00
2019-03-15T06:32:29.374Z,15.13
2019-03-15T06:34:59.046Z,16.43
2019-03-15T06:37:28.701Z,17.27
2019-03-15T06:39:58.358Z,15.40
2019-03-15T06:42:28.050Z,15.53
2019-03-15T06:44:58.370Z,15.80
2019-03-15T06:47:28.683Z,15.60
2019-03-15T06:49:58.484Z,10.97
2019-03-15T06:52:28.108Z,10.77
2019-03-15T06:54:57.786Z,9.80
2019-03-15T06:57:27.456Z,8.13
2019-03-15T06:59:59.446Z,7.67
2019-03-15T07:02:28.066Z,8.37
2019-03-15T07:04:57.709Z,8.73
2019-03-15T07:07:29.862Z,9.53
2019-03-15T07:10:00.594Z,9.17
2019-03-15T07:12:30.219Z,9.17
2019-03-15T07:15:00.827Z,10.00
2019-03-15T07:17:30.457Z,9.27
2019-03-15T07:20:01.493Z,9.73
2019-03-15T07:22:31.110Z,10.30
2019-03-15T07:25:00.749Z,7.67
2019-03-15T07:27:31.729Z,8.40
2019-03-15T07:30:01.373Z,7.70
2019-03-15T07:32:31.240Z,7.70
2019-03-15T07:35:01.645Z,7.80
2019-03-15T07:37:31.300Z,5.80
2019-03-15T07:40:00.934Z,6.53
2019-03-15T07:42:30.568Z,7.10
2019-03-15T07:45:00.361Z,8.37
2019-03-15T07:47:29.989Z,6.10
2019-03-15T07:50:00.904Z,5.50
2019-03-15T07:52:30.560Z,5.27
2019-03-15T07:55:00.203Z,5.37
2019-03-15T07:57:29.823Z,5.13
2019-03-15T08:00:01.847Z,6.23
2019-03-15T08:02:31.516Z,4.50
2019-03-15T08:05:01.161Z,5.23
2019-03-15T08:07:37.804Z,4.57
2019-03-15T08:10:03.005Z,5.17
2019-03-15T08:12:32.841Z,4.90
2019-03-15T08:15:03.735Z,5.43
2019-03-15T08:17:33.395Z,5.30
2019-03-15T08:20:03.115Z,5.40
2019-03-15T08:22:32.769Z,4.53
2019-03-15T08:25:03.638Z,5.40
2019-03-15T08:27:33.294Z,5.17
2019-03-15T08:30:03.040Z,5.17
2019-03-15T08:32:32.674Z,4.30
2019-03-15T08:35:04.211Z,4.47
2019-03-15T08:37:33.334Z,4.77
2019-03-15T08:40:03.095Z,4.53
2019-03-15T08:42:34.645Z,4.80
2019-03-15T08:45:02.404Z,2.77
2019-03-15T08:47:32.047Z,3.23
2019-03-15T08:50:01.670Z,2.73
2019-03-15T08:52:33.822Z,2.57
2019-03-15T08:55:05.448Z,2.33
2019-03-15T08:57:33.221Z,1.53
2019-03-15T09:00:02.923Z,1.73
2019-03-15T09:02:32.585Z,1.80
2019-03-15T09:05:02.211Z,1.57
2019-03-15T09:07:33.277Z,1.50
2019-03-15T09:10:03.676Z,1.37
2019-03-15T09:12:32.605Z,1.70
2019-03-15T09:15:04.664Z,1.70
2019-03-15T09:17:34.686Z,1.50
2019-03-15T09:20:04.342Z,1.63
2019-03-15T09:22:33.975Z,1.70
2019-03-15T09:25:03.605Z,1.90
2019-03-15T09:27:35.367Z,1.70
2019-03-15T09:30:06.592Z,1.43
2019-03-15T09:32:37.477Z,1.40
2019-03-15T09:35:07.362Z,1.60
2019-03-15T09:37:37.124Z,2.80
2019-03-15T09:40:07.300Z,1.30
2019-03-15T09:42:37.741Z,1.80
2019-03-15T09:45:09.806Z,1.50
2019-03-15T09:47:39.461Z,1.60
2019-03-15T09:50:21.156Z,1.67
2019-03-15T09:52:39.982Z,1.70
2019-03-15T09:55:12.103Z,1.70
2019-03-15T09:57:41.773Z,1.23
2019-03-15T10:00:13.884Z,1.50
2019-03-15T10:02:44.851Z,1.40
2019-03-15T10:05:14.459Z,1.60
2019-03-15T10:07:44.257Z,1.70
2019-03-15T10:10:19.307Z,1.73
2019-03-15T10:12:48.218Z,1.77
2019-03-15T10:15:17.908Z,1.50
2019-03-15T10:17:47.525Z,1.40
2019-03-15T10:20:17.139Z,1.60
2019-03-15T10:23:04.120Z,1.23
2019-03-15T10:25:16.451Z,1.10
2019-03-15T10:27:48.688Z,1.40
2019-03-15T10:30:18.352Z,1.00
2019-03-15T10:32:47.991Z,1.20
2019-03-15T10:35:17.656Z,1.10
2019-03-15T10:37:47.266Z,1.03
2019-03-15T10:40:16.956Z,1.23
2019-03-15T10:42:46.593Z,1.80
2019-03-15T10:45:16.267Z,1.40
2019-03-15T10:47:45.910Z,1.43
2019-03-15T10:50:15.538Z,1.70
2019-03-15T10:52:45.174Z,1.10
2019-03-15T10:55:14.782Z,1.30
2019-03-15T10:57:44.550Z,1.30
2019-03-15T11:00:14.468Z,1.30
2019-03-15T11:02:44.119Z,1.83
2019-03-15T11:05:13.816Z,1.80
2019-03-15T11:07:43.474Z,1.20
2019-03-15T11:10:13.171Z,1.50
2019-03-15T11:12:42.930Z,1.40
2019-03-15T11:15:12.628Z,1.67
2019-03-15T11:17:42.295Z,1.97
2019-03-15T11:20:11.966Z,1.93
2019-03-15T11:22:41.704Z,1.80
2019-03-15T11:25:11.263Z,1.13
2019-03-15T11:27:42.170Z,1.50
2019-03-15T11:30:11.848Z,1.23
2019-03-15T11:32:41.501Z,1.00
2019-03-15T11:35:11.153Z,1.17
2019-03-15T11:37:40.797Z,1.20
2019-03-15T11:40:13.682Z,1.10
2019-03-15T11:42:41.513Z,1.20
2019-03-15T11:45:11.167Z,1.03
2019-03-15T11:48:01.255Z,1.30
2019-03-15T11:50:10.547Z,1.30
2019-03-15T11:52:40.186Z,1.70
2019-03-15T11:55:09.869Z,1.90
2019-03-15T11:57:39.504Z,2.13
2019-03-15T12:00:10.434Z,1.60
2019-03-15T12:02:40.086Z,1.47
2019-03-15T12:05:09.898Z,1.80
2019-03-15T12:07:39.561Z,3.27
2019-03-15T12:10:09.281Z,6.03
2019-03-15T12:12:40.287Z,6.10
2019-03-15T12:15:10.310Z,3.63
2019-03-15T12:17:39.914Z,3.80
2019-03-15T12:20:09.575Z,1.77
2019-03-15T12:22:39.299Z,2.70
2019-03-15T12:25:08.928Z,1.90
2019-03-15T12:27:39.972Z,2.50
2019-03-15T12:30:10.902Z,2.70
2019-03-15T12:32:40.527Z,2.83
2019-03-15T12:35:10.603Z,3.20
2019-03-15T12:37:41.470Z,3.17
2019-03-15T12:40:12.506Z,3.30
2019-03-15T12:42:42.156Z,3.40
2019-03-15T12:45:11.794Z,3.50
2019-03-15T12:47:41.447Z,3.20
2019-03-15T12:50:11.219Z,3.23
2019-03-15T12:52:48.946Z,2.90
2019-03-15T12:55:13.142Z,3.37
2019-03-15T12:57:42.825Z,3.30
2019-03-15T13:00:13.102Z,3.20
2019-03-15T13:02:42.774Z,3.10
2019-03-15T13:05:12.391Z,2.70
2019-03-15T13:07:42.102Z,2.67
2019-03-15T13:10:11.976Z,2.67
2019-03-15T13:12:42.858Z,2.80
2019-03-15T13:15:14.411Z,2.87
2019-03-15T13:17:44.054Z,2.27
2019-03-15T13:20:14.822Z,2.50
2019-03-15T13:22:44.473Z,2.10
2019-03-15T13:25:16.539Z,2.30
2019-03-15T13:27:46.317Z,2.53
2019-03-15T13:30:15.946Z,2.80
2019-03-15T13:32:46.214Z,2.70
2019-03-15T13:35:15.910Z,5.20
2019-03-15T13:37:45.544Z,2.00
2019-03-15T13:40:16.443Z,1.80
2019-03-15T13:42:46.168Z,1.70
2019-03-15T13:45:15.942Z,2.00
2019-03-15T13:47:45.705Z,2.10
2019-03-15T13:50:15.533Z,2.40
2019-03-15T13:52:46.591Z,2.10
2019-03-15T13:55:16.347Z,2.63
2019-03-15T13:57:46.015Z,2.10
2019-03-15T14:00:15.788Z,2.63
2019-03-15T14:02:45.488Z,2.90
2019-03-15T14:05:16.564Z,3.00
2019-03-15T14:07:46.210Z,2.97
2019-03-15T14:10:15.869Z,2.80
2019-03-15T14:12:46.777Z,3.30
2019-03-15T14:15:16.414Z,3.23
2019-03-15T14:17:46.523Z,2.60
2019-03-15T14:20:17.589Z,2.60
2019-03-15T14:22:47.901Z,2.40
2019-03-15T14:25:17.699Z,2.10
2019-03-15T14:27:47.410Z,1.70
2019-03-15T14:30:17.082Z,1.93
2019-03-15T14:32:50.737Z,2.03
2019-03-15T14:35:20.366Z,1.63
2019-03-15T14:37:49.988Z,1.53
2019-03-15T14:40:19.639Z,2.03
2019-03-15T14:42:49.316Z,1.83
2019-03-15T14:45:19.026Z,1.93
2019-03-15T14:47:49.903Z,1.80
2019-03-15T14:50:20.754Z,2.13
2019-03-15T14:52:50.355Z,2.77
2019-03-15T14:55:19.991Z,2.07
2019-03-15T14:57:52.967Z,1.60
2019-03-15T15:00:19.257Z,1.70
2019-03-15T15:02:48.866Z,1.60
2019-03-15T15:05:18.586Z,3.67
2019-03-15T15:07:48.286Z,3.00
2019-03-15T15:10:19.403Z,2.50
2019-03-15T15:12:49.091Z,2.50
2019-03-15T15:15:18.787Z,2.13
2019-03-15T15:17:49.715Z,1.90
2019-03-15T15:20:19.419Z,1.80
2019-03-15T15:22:49.208Z,1.80
2019-03-15T15:25:18.869Z,2.00
2019-03-15T15:27:49.696Z,2.10
2019-03-15T15:30:19.321Z,1.77
2019-03-15T15:32:48.982Z,1.83
2019-03-15T15:35:18.596Z,1.63
2019-03-15T15:37:50.769Z,2.10
2019-03-15T15:40:20.431Z,1.80
2019-03-15T15:42:50.059Z,1.80
2019-03-15T15:45:19.777Z,2.33
2019-03-15T15:47:49.330Z,1.90
2019-03-15T15:50:19.009Z,1.77
2019-03-15T15:52:48.691Z,1.97
2019-03-15T15:55:19.982Z,2.00
2019-03-15T15:57:50.830Z,2.50
2019-03-15T16:00:20.454Z,2.53
2019-03-15T16:02:50.075Z,2.13
2019-03-15T16:05:19.793Z,1.80
2019-03-15T16:07:49.418Z,2.50
2019-03-15T16:10:20.462Z,2.33
2019-03-15T16:12:50.133Z,2.60
2019-03-15T16:15:19.785Z,3.23
2019-03-15T16:17:50.714Z,2.33
2019-03-15T16:20:20.348Z,1.70
2019-03-15T16:22:50.680Z,2.40
2019-03-15T16:25:20.321Z,4.10
2019-03-15T16:27:50.023Z,2.97
2019-03-15T16:30:19.651Z,3.47
2019-03-15T16:32:49.373Z,3.73
2019-03-15T16:35:20.144Z,3.00
2019-03-15T16:37:52.281Z,3.47
2019-03-15T16:40:21.943Z,6.33
2019-03-15T16:42:53.354Z,8.10
2019-03-15T16:45:24.386Z,7.13
2019-03-15T16:47:55.162Z,6.57
2019-03-15T16:50:26.775Z,7.60
2019-03-15T16:52:57.311Z,6.10
2019-03-15T16:55:26.954Z,5.17
2019-03-15T16:57:56.602Z,4.27
2019-03-15T17:00:26.221Z,4.37
2019-03-15T17:02:58.383Z,4.03
2019-03-15T17:05:27.999Z,3.40
2019-03-15T17:07:57.623Z,4.77
2019-03-15T17:10:27.304Z,5.37
2019-03-15T17:12:58.163Z,4.20
2019-03-15T17:15:27.791Z,4.57
2019-03-15T17:17:57.437Z,5.63
2019-03-15T17:20:29.643Z,5.60
2019-03-15T17:22:59.271Z,7.33
2019-03-15T17:25:30.394Z,7.80
2019-03-15T17:28:00.022Z,8.17
2019-03-15T17:30:29.702Z,9.47
2019-03-15T17:32:59.339Z,7.70
2019-03-15T17:35:28.988Z,7.67
2019-03-15T17:37:59.958Z,7.37
2019-03-15T17:40:29.612Z,7.47
2019-03-15T17:42:59.372Z,8.70
2019-03-15T17:45:30.297Z,9.90
2019-03-15T17:47:59.979Z,10.70
2019-03-15T17:50:29.651Z,9.80
2019-03-15T17:52:59.377Z,7.77
2019-03-15T17:55:29.078Z,16.30
2019-03-15T17:57:58.738Z,7.27
2019-03-15T18:00:34.510Z,13.07
2019-03-15T18:03:04.239Z,9.17
2019-03-15T18:05:33.880Z,14.03
2019-03-15T18:08:05.475Z,12.33
2019-03-15T18:10:35.140Z,10.67
2019-03-15T18:13:04.787Z,6.10
2019-03-15T18:15:34.468Z,6.03
2019-03-15T18:18:04.153Z,7.47
2019-03-15T18:20:36.451Z,8.63
2019-03-15T18:23:06.106Z,7.73
2019-03-15T18:25:37.114Z,7.87
2019-03-15T18:28:06.794Z,7.07
2019-03-15T18:30:36.485Z,10.27
2019-03-15T18:33:07.102Z,11.23
2019-03-15T18:35:38.022Z,11.23
2019-03-15T18:38:07.806Z,7.90
2019-03-15T18:40:38.417Z,7.07
2019-03-15T18:43:10.636Z,5.30
2019-03-15T18:45:40.405Z,10.03
2019-03-15T18:48:10.133Z,7.87
2019-03-15T18:50:39.848Z,6.63
2019-03-15T18:53:09.590Z,9.17
2019-03-15T18:55:39.264Z,7.30
2019-03-15T18:58:09.135Z,8.27
2019-03-15T19:00:41.372Z,8.03
2019-03-15T19:03:11.050Z,6.97
2019-03-15T19:05:40.878Z,6.50
2019-03-15T19:08:10.543Z,4.40
2019-03-15T19:10:42.171Z,6.93
2019-03-15T19:13:11.834Z,4.67
2019-03-15T19:15:43.855Z,5.23
2019-03-15T19:18:11.320Z,4.37
2019-03-15T19:20:41.128Z,4.23
2019-03-15T19:23:10.768Z,7.27
2019-03-15T19:25:40.493Z,5.40
2019-03-15T19:28:10.190Z,4.40
2019-03-15T19:30:39.805Z,5.20
2019-03-15T19:33:10.659Z,4.87
2019-03-15T19:35:40.383Z,3.57
2019-03-15T19:38:14.653Z,3.43
2019-03-15T19:40:41.034Z,3.73
2019-03-15T19:43:10.758Z,3.30
2019-03-15T19:45:40.392Z,3.87
2019-03-15T19:48:10.050Z,3.90
2019-03-15T19:50:40.997Z,2.43
2019-03-15T19:53:10.624Z,2.60
2019-03-15T19:55:40.342Z,2.80
2019-03-15T19:58:10.031Z,1.60
2019-03-15T20:00:39.666Z,2.43
2019-03-15T20:03:09.355Z,1.80
2019-03-15T20:05:39.019Z,1.73
2019-03-15T20:08:09.986Z,1.80
2019-03-15T20:10:39.634Z,2.37
2019-03-15T20:13:09.706Z,1.97
2019-03-15T20:15:39.596Z,2.07
2019-03-15T20:18:10.685Z,1.50
2019-03-15T20:20:41.550Z,1.90
2019-03-15T20:23:11.190Z,1.70
2019-03-15T20:25:42.587Z,2.43
2019-03-15T20:28:13.366Z,2.43
2019-03-15T20:30:51.887Z,2.50
2019-03-15T20:33:14.051Z,2.50
2019-03-15T20:35:44.962Z,3.00
2019-03-15T20:38:14.619Z,2.93
2019-03-15T20:40:44.319Z,3.20
2019-03-15T20:43:14.011Z,3.03
2019-03-15T20:45:43.645Z,3.23
2019-03-15T20:48:13.296Z,2.10
2019-03-15T20:50:47.029Z,1.90
2019-03-15T20:53:13.844Z,2.27
2019-03-15T20:55:43.612Z,2.27
2019-03-15T20:58:13.143Z,2.30
2019-03-15T21:00:43.974Z,2.87
2019-03-15T21:03:16.107Z,1.83
2019-03-15T21:05:45.758Z,2.33
2019-03-15T21:08:17.856Z,1.90
2019-03-15T21:10:51.582Z,2.63
2019-03-15T21:13:19.682Z,2.70
2019-03-15T21:15:49.299Z,2.43
2019-03-15T21:18:19.015Z,2.37
2019-03-15T21:20:48.735Z,2.10
2019-03-15T21:23:18.400Z,2.13
2019-03-15T21:25:48.038Z,1.83
2019-03-15T21:28:17.696Z,1.80
2019-03-15T21:30:48.989Z,2.00
2019-03-15T21:33:18.215Z,1.67
2019-03-15T21:35:49.186Z,3.33
2019-03-15T21:38:18.882Z,2.07
2019-03-15T21:40:48.568Z,1.83
2019-03-15T21:43:19.516Z,1.30
2019-03-15T21:45:49.167Z,1.10
2019-03-15T21:48:18.899Z,1.97
2019-03-15T21:50:48.558Z,1.10
2019-03-15T21:53:18.544Z,1.63
2019-03-15T21:55:48.206Z,1.47
2019-03-15T21:58:17.891Z,1.40
2019-03-15T22:01:01.139Z,1.13
2019-03-15T22:03:17.206Z,1.67
2019-03-15T22:05:46.814Z,1.60
2019-03-15T22:08:16.438Z,1.70
2019-03-15T22:10:47.266Z,1.50
2019-03-15T22:13:16.922Z,1.20
2019-03-15T22:15:46.563Z,1.20
2019-03-15T22:18:16.190Z,1.40
2019-03-15T22:20:47.101Z,1.43
2019-03-15T22:23:18.043Z,1.60
2019-03-15T22:25:47.739Z,1.30
2019-03-15T22:28:18.714Z,1.60
2019-03-15T22:30:48.360Z,1.30
2019-03-15T22:33:18.018Z,1.90
2019-03-15T22:35:47.715Z,1.70
2019-03-15T22:38:26.072Z,1.23
2019-03-15T22:40:46.974Z,1.33
2019-03-15T22:43:16.723Z,1.33
2019-03-15T22:45:46.298Z,1.77
2019-03-15T22:48:15.915Z,1.47
2019-03-15T22:50:46.751Z,1.37
2019-03-15T22:53:16.658Z,0.93
2019-03-15T22:55:46.342Z,1.40
2019-03-15T22:58:17.353Z,1.70
2019-03-15T23:00:46.979Z,1.30
2019-03-15T23:03:16.615Z,0.97
2019-03-15T23:05:46.273Z,0.90
2019-03-15T23:08:15.923Z,1.10
2019-03-15T23:10:47.199Z,0.97
2019-03-15T23:13:15.208Z,0.80
2019-03-15T23:15:44.834Z,1.10
2019-03-15T23:18:14.463Z,0.70
2019-03-15T23:20:44.116Z,1.20
2019-03-15T23:23:23.155Z,0.50
2019-03-15T23:25:43.422Z,0.67
2019-03-15T23:28:13.060Z,0.90
2019-03-15T23:30:42.726Z,0.97
2019-03-15T23:33:13.062Z,0.80
2019-03-15T23:35:53.355Z,0.70
2019-03-15T23:38:14.842Z,1.40
2019-03-15T23:40:44.489Z,1.07
2019-03-15T23:43:14.129Z,0.50
2019-03-15T23:45:43.813Z,0.47
2019-03-15T23:48:13.576Z,0.60
2019-03-15T23:50:43.286Z,0.40
2019-03-15T23:53:14.375Z,0.70
2019-03-15T23:55:44.044Z,0.60
2019-03-15T23:58:13.681Z,0.50
